sensor_id;sensor_type;location;lat;lon;timestamp;P1;durP1;ratioP1;P2;durP2;ratioP2
51578;SDS011;47998;53.242;6.386;2023-04-03T00:00:32;4.20;;;0.80;;
51578;SDS011;47998;53.242;6.386;2023-04-03T00:02:58;2.30;;;1.00;;
51578;SDS011;47998;53.242;6.386;2023-04-03T00:05:24;5.47;;;1.57;;
51578;SDS011;47998;53.242;6.386;2023-04-03T00:07:51;3.10;;;0.93;;
51578;SDS011;47998;53.242;6.386;2023-04-03T00:10:17;2.43;;;0.87;;
51578;SDS011;47998;53.242;6.386;2023-04-03T00:12:43;2.67;;;0.87;;
51578;SDS011;47998;53.242;6.386;2023-04-03T00:15:09;1.63;;;0.93;;
51578;SDS011;47998;53.242;6.386;2023-04-03T00:17:34;1.97;;;0.70;;
51578;SDS011;47998;53.242;6.386;2023-04-03T00:20:00;2.23;;;0.77;;
51578;SDS011;47998;53.242;6.386;2023-04-03T00:22:27;6.40;;;1.10;;
51578;SDS011;47998;53.242;6.386;2023-04-03T00:24:54;3.07;;;0.73;;
51578;SDS011;47998;53.242;6.386;2023-04-03T00:27:20;2.70;;;1.00;;
51578;SDS011;47998;53.242;6.386;2023-04-03T00:29:46;4.37;;;1.00;;
51578;SDS011;47998;53.242;6.386;2023-04-03T00:32:12;2.80;;;1.37;;
51578;SDS011;47998;53.242;6.386;2023-04-03T00:34:38;2.10;;;0.70;;
51578;SDS011;47998;53.242;6.386;2023-04-03T00:37:04;2.53;;;0.80;;
51578;SDS011;47998;53.242;6.386;2023-04-03T00:39:30;1.63;;;0.93;;
51578;SDS011;47998;53.242;6.386;2023-04-03T00:41:55;3.20;;;0.90;;
51578;SDS011;47998;53.242;6.386;2023-04-03T00:44:22;3.33;;;1.20;;
51578;SDS011;47998;53.242;6.386;2023-04-03T00:47:10;2.43;;;0.73;;
51578;SDS011;47998;53.242;6.386;2023-04-03T00:49:40;1.23;;;0.60;;
51578;SDS011;47998;53.242;6.386;2023-04-03T00:52:08;4.93;;;0.80;;
51578;SDS011;47998;53.242;6.386;2023-04-03T00:54:40;3.05;;;0.82;;
51578;SDS011;47998;53.242;6.386;2023-04-03T00:57:07;2.87;;;0.77;;
51578;SDS011;47998;53.242;6.386;2023-04-03T00:59:37;2.33;;;0.70;;
51578;SDS011;47998;53.242;6.386;2023-04-03T01:02:09;4.93;;;1.55;;
51578;SDS011;47998;53.242;6.386;2023-04-03T01:04:36;3.13;;;0.70;;
51578;SDS011;47998;53.242;6.386;2023-04-03T01:07:05;3.97;;;0.70;;
51578;SDS011;47998;53.242;6.386;2023-04-03T01:09:35;5.63;;;1.23;;
51578;SDS011;47998;53.242;6.386;2023-04-03T01:12:18;2.20;;;0.90;;
51578;SDS011;47998;53.242;6.386;2023-04-03T01:14:48;5.00;;;1.10;;
51578;SDS011;47998;53.242;6.386;2023-04-03T01:25:40;4.83;;;1.33;;
51578;SDS011;47998;53.242;6.386;2023-04-03T01:28:18;2.83;;;0.87;;
51578;SDS011;47998;53.242;6.386;2023-04-03T01:30:48;3.00;;;0.87;;
51578;SDS011;47998;53.242;6.386;2023-04-03T01:33:21;2.03;;;0.80;;
51578;SDS011;47998;53.242;6.386;2023-04-03T01:35:47;4.97;;;1.17;;
51578;SDS011;47998;53.242;6.386;2023-04-03T01:38:13;5.90;;;0.97;;
51578;SDS011;47998;53.242;6.386;2023-04-03T01:40:39;4.37;;;1.00;;
51578;SDS011;47998;53.242;6.386;2023-04-03T01:43:05;2.20;;;0.90;;
51578;SDS011;47998;53.242;6.386;2023-04-03T01:45:30;4.80;;;0.90;;
51578;SDS011;47998;53.242;6.386;2023-04-03T01:47:56;6.47;;;1.40;;
51578;SDS011;47998;53.242;6.386;2023-04-03T01:50:22;4.13;;;1.40;;
51578;SDS011;47998;53.242;6.386;2023-04-03T01:52:48;3.50;;;0.73;;
51578;SDS011;47998;53.242;6.386;2023-04-03T01:55:13;5.93;;;1.10;;
51578;SDS011;47998;53.242;6.386;2023-04-03T01:57:40;6.57;;;1.00;;
51578;SDS011;47998;53.242;6.386;2023-04-03T02:00:06;3.77;;;1.70;;
51578;SDS011;47998;53.242;6.386;2023-04-03T02:02:32;6.63;;;1.30;;
51578;SDS011;47998;53.242;6.386;2023-04-03T02:04:58;6.77;;;1.57;;
51578;SDS011;47998;53.242;6.386;2023-04-03T02:07:24;3.97;;;1.20;;
51578;SDS011;47998;53.242;6.386;2023-04-03T02:09:50;4.30;;;1.10;;
51578;SDS011;47998;53.242;6.386;2023-04-03T02:12:16;4.10;;;1.03;;
51578;SDS011;47998;53.242;6.386;2023-04-03T02:14:42;4.10;;;1.27;;
51578;SDS011;47998;53.242;6.386;2023-04-03T02:17:08;5.00;;;1.00;;
51578;SDS011;47998;53.242;6.386;2023-04-03T02:19:34;6.53;;;1.27;;
51578;SDS011;47998;53.242;6.386;2023-04-03T02:22:01;6.43;;;1.23;;
51578;SDS011;47998;53.242;6.386;2023-04-03T02:24:28;5.47;;;1.00;;
51578;SDS011;47998;53.242;6.386;2023-04-03T02:26:53;3.37;;;1.00;;
51578;SDS011;47998;53.242;6.386;2023-04-03T02:29:19;5.43;;;1.00;;
51578;SDS011;47998;53.242;6.386;2023-04-03T02:31:45;3.97;;;1.30;;
51578;SDS011;47998;53.242;6.386;2023-04-03T02:34:11;5.07;;;1.50;;
51578;SDS011;47998;53.242;6.386;2023-04-03T02:36:37;5.63;;;1.47;;
51578;SDS011;47998;53.242;6.386;2023-04-03T02:39:03;3.00;;;1.00;;
51578;SDS011;47998;53.242;6.386;2023-04-03T02:41:29;6.97;;;1.90;;
51578;SDS011;47998;53.242;6.386;2023-04-03T02:44:02;4.33;;;1.10;;
51578;SDS011;47998;53.242;6.386;2023-04-03T02:46:29;5.47;;;1.33;;
51578;SDS011;47998;53.242;6.386;2023-04-03T02:48:55;7.00;;;1.53;;
51578;SDS011;47998;53.242;6.386;2023-04-03T02:51:21;5.67;;;1.60;;
51578;SDS011;47998;53.242;6.386;2023-04-03T02:53:50;7.63;;;1.40;;
51578;SDS011;47998;53.242;6.386;2023-04-03T02:56:16;11.03;;;2.57;;
51578;SDS011;47998;53.242;6.386;2023-04-03T02:58:44;4.33;;;1.57;;
51578;SDS011;47998;53.242;6.386;2023-04-03T03:01:10;8.23;;;1.40;;
51578;SDS011;47998;53.242;6.386;2023-04-03T03:03:36;10.60;;;2.50;;
51578;SDS011;47998;53.242;6.386;2023-04-03T03:06:03;4.63;;;1.20;;
51578;SDS011;47998;53.242;6.386;2023-04-03T03:08:30;5.83;;;1.07;;
51578;SDS011;47998;53.242;6.386;2023-04-03T03:10:56;10.00;;;1.77;;
51578;SDS011;47998;53.242;6.386;2023-04-03T03:13:22;8.23;;;1.90;;
51578;SDS011;47998;53.242;6.386;2023-04-03T03:15:48;4.27;;;1.60;;
51578;SDS011;47998;53.242;6.386;2023-04-03T03:18:14;6.90;;;1.57;;
51578;SDS011;47998;53.242;6.386;2023-04-03T03:20:40;4.40;;;1.70;;
51578;SDS011;47998;53.242;6.386;2023-04-03T03:23:06;6.57;;;1.70;;
51578;SDS011;47998;53.242;6.386;2023-04-03T03:25:32;5.07;;;1.20;;
51578;SDS011;47998;53.242;6.386;2023-04-03T03:27:57;7.77;;;1.77;;
51578;SDS011;47998;53.242;6.386;2023-04-03T03:30:23;9.07;;;2.17;;
51578;SDS011;47998;53.242;6.386;2023-04-03T03:32:49;8.33;;;1.33;;
51578;SDS011;47998;53.242;6.386;2023-04-03T03:35:15;8.20;;;1.80;;
51578;SDS011;47998;53.242;6.386;2023-04-03T03:37:40;7.40;;;1.60;;
51578;SDS011;47998;53.242;6.386;2023-04-03T03:40:07;6.70;;;1.73;;
51578;SDS011;47998;53.242;6.386;2023-04-03T03:42:33;9.53;;;1.50;;
51578;SDS011;47998;53.242;6.386;2023-04-03T03:44:59;9.20;;;2.10;;
51578;SDS011;47998;53.242;6.386;2023-04-03T03:47:24;8.97;;;2.23;;
51578;SDS011;47998;53.242;6.386;2023-04-03T03:49:50;5.80;;;1.80;;
51578;SDS011;47998;53.242;6.386;2023-04-03T03:52:16;6.70;;;1.73;;
51578;SDS011;47998;53.242;6.386;2023-04-03T03:54:42;9.77;;;2.30;;
51578;SDS011;47998;53.242;6.386;2023-04-03T03:57:07;7.83;;;1.93;;
51578;SDS011;47998;53.242;6.386;2023-04-03T03:59:33;7.00;;;2.03;;
51578;SDS011;47998;53.242;6.386;2023-04-03T04:01:59;13.60;;;2.83;;
51578;SDS011;47998;53.242;6.386;2023-04-03T04:04:25;7.77;;;1.90;;
51578;SDS011;47998;53.242;6.386;2023-04-03T04:06:51;6.87;;;2.10;;
51578;SDS011;47998;53.242;6.386;2023-04-03T04:09:16;7.13;;;2.93;;
51578;SDS011;47998;53.242;6.386;2023-04-03T04:11:43;6.40;;;1.80;;
51578;SDS011;47998;53.242;6.386;2023-04-03T04:14:10;6.43;;;1.63;;
51578;SDS011;47998;53.242;6.386;2023-04-03T04:16:37;10.40;;;1.87;;
51578;SDS011;47998;53.242;6.386;2023-04-03T04:19:03;11.33;;;2.30;;
51578;SDS011;47998;53.242;6.386;2023-04-03T04:21:29;7.60;;;2.43;;
51578;SDS011;47998;53.242;6.386;2023-04-03T04:23:55;7.50;;;1.77;;
51578;SDS011;47998;53.242;6.386;2023-04-03T04:26:20;10.03;;;2.37;;
51578;SDS011;47998;53.242;6.386;2023-04-03T04:28:46;10.83;;;2.10;;
51578;SDS011;47998;53.242;6.386;2023-04-03T04:31:12;12.63;;;2.30;;
51578;SDS011;47998;53.242;6.386;2023-04-03T04:33:38;8.20;;;1.83;;
51578;SDS011;47998;53.242;6.386;2023-04-03T04:36:03;6.40;;;2.37;;
51578;SDS011;47998;53.242;6.386;2023-04-03T04:38:29;6.47;;;2.40;;
51578;SDS011;47998;53.242;6.386;2023-04-03T04:40:55;9.03;;;1.97;;
51578;SDS011;47998;53.242;6.386;2023-04-03T04:43:21;6.40;;;1.90;;
51578;SDS011;47998;53.242;6.386;2023-04-03T04:45:47;5.80;;;2.47;;
51578;SDS011;47998;53.242;6.386;2023-04-03T04:48:13;11.40;;;2.53;;
51578;SDS011;47998;53.242;6.386;2023-04-03T04:50:38;8.07;;;2.20;;
51578;SDS011;47998;53.242;6.386;2023-04-03T04:53:04;8.47;;;2.57;;
51578;SDS011;47998;53.242;6.386;2023-04-03T04:55:30;8.17;;;2.47;;
51578;SDS011;47998;53.242;6.386;2023-04-03T04:57:57;15.97;;;3.33;;
51578;SDS011;47998;53.242;6.386;2023-04-03T05:00:22;8.10;;;2.30;;
51578;SDS011;47998;53.242;6.386;2023-04-03T05:02:48;8.27;;;2.47;;
51578;SDS011;47998;53.242;6.386;2023-04-03T05:05:14;5.40;;;1.97;;
51578;SDS011;47998;53.242;6.386;2023-04-03T05:07:42;9.73;;;2.53;;
51578;SDS011;47998;53.242;6.386;2023-04-03T05:10:08;9.07;;;2.87;;
51578;SDS011;47998;53.242;6.386;2023-04-03T05:12:34;8.13;;;2.50;;
51578;SDS011;47998;53.242;6.386;2023-04-03T05:15:00;8.60;;;3.30;;
51578;SDS011;47998;53.242;6.386;2023-04-03T05:17:26;9.77;;;3.17;;
51578;SDS011;47998;53.242;6.386;2023-04-03T05:19:52;7.10;;;2.50;;
51578;SDS011;47998;53.242;6.386;2023-04-03T05:22:18;6.63;;;2.50;;
51578;SDS011;47998;53.242;6.386;2023-04-03T05:24:43;6.80;;;2.57;;
51578;SDS011;47998;53.242;6.386;2023-04-03T05:27:09;11.37;;;2.70;;
51578;SDS011;47998;53.242;6.386;2023-04-03T05:29:35;11.17;;;2.73;;
51578;SDS011;47998;53.242;6.386;2023-04-03T05:32:01;5.07;;;2.20;;
51578;SDS011;47998;53.242;6.386;2023-04-03T05:34:27;20.43;;;4.77;;
51578;SDS011;47998;53.242;6.386;2023-04-03T05:36:53;7.97;;;2.57;;
51578;SDS011;47998;53.242;6.386;2023-04-03T05:39:19;9.43;;;2.77;;
51578;SDS011;47998;53.242;6.386;2023-04-03T05:41:45;12.73;;;2.77;;
51578;SDS011;47998;53.242;6.386;2023-04-03T05:44:10;8.83;;;2.70;;
51578;SDS011;47998;53.242;6.386;2023-04-03T05:46:36;8.13;;;2.30;;
51578;SDS011;47998;53.242;6.386;2023-04-03T05:49:02;7.83;;;2.97;;
51578;SDS011;47998;53.242;6.386;2023-04-03T05:51:29;13.90;;;3.00;;
51578;SDS011;47998;53.242;6.386;2023-04-03T05:54:00;7.17;;;2.40;;
51578;SDS011;47998;53.242;6.386;2023-04-03T05:56:33;8.93;;;2.70;;
51578;SDS011;47998;53.242;6.386;2023-04-03T05:58:59;10.43;;;3.40;;
51578;SDS011;47998;53.242;6.386;2023-04-03T06:01:25;10.80;;;2.97;;
51578;SDS011;47998;53.242;6.386;2023-04-03T06:03:51;6.07;;;2.10;;
51578;SDS011;47998;53.242;6.386;2023-04-03T06:06:17;6.77;;;2.10;;
51578;SDS011;47998;53.242;6.386;2023-04-03T06:08:43;11.07;;;2.63;;
51578;SDS011;47998;53.242;6.386;2023-04-03T06:11:10;11.53;;;2.90;;
51578;SDS011;47998;53.242;6.386;2023-04-03T06:13:41;10.67;;;3.37;;
51578;SDS011;47998;53.242;6.386;2023-04-03T06:16:08;8.67;;;2.63;;
51578;SDS011;47998;53.242;6.386;2023-04-03T06:18:39;7.03;;;1.93;;
51578;SDS011;47998;53.242;6.386;2023-04-03T06:21:06;9.33;;;2.30;;
51578;SDS011;47998;53.242;6.386;2023-04-03T06:23:33;9.37;;;2.50;;
51578;SDS011;47998;53.242;6.386;2023-04-03T06:25:58;8.37;;;2.33;;
51578;SDS011;47998;53.242;6.386;2023-04-03T06:28:25;9.07;;;2.63;;
51578;SDS011;47998;53.242;6.386;2023-04-03T06:30:51;7.87;;;3.13;;
51578;SDS011;47998;53.242;6.386;2023-04-03T06:33:17;14.90;;;2.67;;
51578;SDS011;47998;53.242;6.386;2023-04-03T06:35:43;8.30;;;2.23;;
51578;SDS011;47998;53.242;6.386;2023-04-03T06:38:08;8.10;;;2.33;;
51578;SDS011;47998;53.242;6.386;2023-04-03T06:40:35;10.53;;;3.07;;
51578;SDS011;47998;53.242;6.386;2023-04-03T06:43:01;6.87;;;2.23;;
51578;SDS011;47998;53.242;6.386;2023-04-03T06:45:27;15.50;;;2.80;;
51578;SDS011;47998;53.242;6.386;2023-04-03T06:47:53;9.00;;;2.50;;
51578;SDS011;47998;53.242;6.386;2023-04-03T06:50:19;7.80;;;2.73;;
51578;SDS011;47998;53.242;6.386;2023-04-03T06:52:44;11.20;;;2.17;;
51578;SDS011;47998;53.242;6.386;2023-04-03T06:55:10;7.10;;;2.60;;
51578;SDS011;47998;53.242;6.386;2023-04-03T06:57:37;9.13;;;2.40;;
51578;SDS011;47998;53.242;6.386;2023-04-03T07:00:03;8.53;;;2.03;;
51578;SDS011;47998;53.242;6.386;2023-04-03T07:02:30;8.30;;;2.50;;
51578;SDS011;47998;53.242;6.386;2023-04-03T07:04:56;6.20;;;2.30;;
51578;SDS011;47998;53.242;6.386;2023-04-03T07:07:22;9.53;;;2.37;;
51578;SDS011;47998;53.242;6.386;2023-04-03T07:09:48;8.57;;;2.30;;
51578;SDS011;47998;53.242;6.386;2023-04-03T07:12:14;9.70;;;2.50;;
51578;SDS011;47998;53.242;6.386;2023-04-03T07:14:41;10.63;;;2.73;;
51578;SDS011;47998;53.242;6.386;2023-04-03T07:17:07;7.70;;;2.27;;
51578;SDS011;47998;53.242;6.386;2023-04-03T07:19:33;8.10;;;2.63;;
51578;SDS011;47998;53.242;6.386;2023-04-03T07:21:59;9.23;;;2.03;;
51578;SDS011;47998;53.242;6.386;2023-04-03T07:24:25;8.43;;;2.13;;
51578;SDS011;47998;53.242;6.386;2023-04-03T07:26:54;7.20;;;2.77;;
51578;SDS011;47998;53.242;6.386;2023-04-03T07:29:19;7.83;;;2.67;;
51578;SDS011;47998;53.242;6.386;2023-04-03T07:31:47;12.40;;;2.83;;
51578;SDS011;47998;53.242;6.386;2023-04-03T07:34:12;10.57;;;1.97;;
51578;SDS011;47998;53.242;6.386;2023-04-03T07:36:38;3.97;;;1.67;;
51578;SDS011;47998;53.242;6.386;2023-04-03T07:39:04;5.00;;;1.43;;
51578;SDS011;47998;53.242;6.386;2023-04-03T07:41:31;5.57;;;1.70;;
51578;SDS011;47998;53.242;6.386;2023-04-03T07:43:57;8.70;;;1.57;;
51578;SDS011;47998;53.242;6.386;2023-04-03T07:46:23;7.20;;;1.70;;
51578;SDS011;47998;53.242;6.386;2023-04-03T07:48:49;6.60;;;1.20;;
51578;SDS011;47998;53.242;6.386;2023-04-03T07:51:15;8.53;;;3.50;;
51578;SDS011;47998;53.242;6.386;2023-04-03T07:53:41;6.90;;;2.20;;
51578;SDS011;47998;53.242;6.386;2023-04-03T07:56:07;6.13;;;1.47;;
51578;SDS011;47998;53.242;6.386;2023-04-03T07:58:33;5.07;;;1.43;;
51578;SDS011;47998;53.242;6.386;2023-04-03T08:00:59;8.13;;;1.80;;
51578;SDS011;47998;53.242;6.386;2023-04-03T08:03:25;5.60;;;1.60;;
51578;SDS011;47998;53.242;6.386;2023-04-03T08:05:51;5.33;;;1.40;;
51578;SDS011;47998;53.242;6.386;2023-04-03T08:08:20;5.00;;;1.13;;
51578;SDS011;47998;53.242;6.386;2023-04-03T08:10:51;6.13;;;1.50;;
51578;SDS011;47998;53.242;6.386;2023-04-03T08:13:18;8.93;;;1.87;;
51578;SDS011;47998;53.242;6.386;2023-04-03T08:15:45;5.77;;;1.70;;
51578;SDS011;47998;53.242;6.386;2023-04-03T08:18:12;10.20;;;2.88;;
51578;SDS011;47998;53.242;6.386;2023-04-03T08:20:39;5.20;;;2.27;;
51578;SDS011;47998;53.242;6.386;2023-04-03T08:23:06;5.75;;;1.52;;
51578;SDS011;47998;53.242;6.386;2023-04-03T08:25:33;6.50;;;1.50;;
51578;SDS011;47998;53.242;6.386;2023-04-03T08:28:02;5.45;;;1.80;;
51578;SDS011;47998;53.242;6.386;2023-04-03T08:30:28;6.80;;;1.70;;
51578;SDS011;47998;53.242;6.386;2023-04-03T08:32:54;5.93;;;1.65;;
51578;SDS011;47998;53.242;6.386;2023-04-03T08:35:20;6.93;;;1.50;;
51578;SDS011;47998;53.242;6.386;2023-04-03T08:37:46;4.80;;;1.35;;
51578;SDS011;47998;53.242;6.386;2023-04-03T08:40:13;4.95;;;1.15;;
51578;SDS011;47998;53.242;6.386;2023-04-03T08:48:12;4.88;;;1.67;;
51578;SDS011;47998;53.242;6.386;2023-04-03T08:50:58;3.67;;;1.17;;
51578;SDS011;47998;53.242;6.386;2023-04-03T08:53:30;5.45;;;1.60;;
51578;SDS011;47998;53.242;6.386;2023-04-03T08:56:02;4.43;;;1.35;;
51578;SDS011;47998;53.242;6.386;2023-04-03T09:01:21;5.20;;;1.20;;
51578;SDS011;47998;53.242;6.386;2023-04-03T09:04:05;5.50;;;1.45;;
51578;SDS011;47998;53.242;6.386;2023-04-03T09:06:36;9.77;;;1.60;;
51578;SDS011;47998;53.242;6.386;2023-04-03T09:17:41;6.03;;;1.30;;
51578;SDS011;47998;53.242;6.386;2023-04-03T09:22:43;5.05;;;1.25;;
51578;SDS011;47998;53.242;6.386;2023-04-03T09:25:13;6.35;;;1.42;;
51578;SDS011;47998;53.242;6.386;2023-04-03T09:27:44;2.38;;;0.80;;
51578;SDS011;47998;53.242;6.386;2023-04-03T09:30:17;3.15;;;0.60;;
51578;SDS011;47998;53.242;6.386;2023-04-03T09:32:45;2.20;;;0.77;;
51578;SDS011;47998;53.242;6.386;2023-04-03T09:35:22;3.90;;;1.05;;
51578;SDS011;47998;53.242;6.386;2023-04-03T09:40:36;7.03;;;4.18;;
51578;SDS011;47998;53.242;6.386;2023-04-03T09:43:19;1.83;;;0.70;;
51578;SDS011;47998;53.242;6.386;2023-04-03T09:45:48;4.82;;;0.85;;
51578;SDS011;47998;53.242;6.386;2023-04-03T09:48:25;4.55;;;1.10;;
51578;SDS011;47998;53.242;6.386;2023-04-03T09:50:57;2.70;;;0.75;;
51578;SDS011;47998;53.242;6.386;2023-04-03T09:53:40;3.88;;;0.80;;
51578;SDS011;47998;53.242;6.386;2023-04-03T09:58:44;2.67;;;0.77;;
51578;SDS011;47998;53.242;6.386;2023-04-03T10:06:33;1.35;;;0.60;;
51578;SDS011;47998;53.242;6.386;2023-04-03T10:09:22;3.38;;;0.77;;
51578;SDS011;47998;53.242;6.386;2023-04-03T10:17:18;4.07;;;0.68;;
51578;SDS011;47998;53.242;6.386;2023-04-03T10:22:59;4.82;;;1.30;;
51578;SDS011;47998;53.242;6.386;2023-04-03T10:26:05;1.75;;;0.40;;
51578;SDS011;47998;53.242;6.386;2023-04-03T10:31:18;4.40;;;0.80;;
51578;SDS011;47998;53.242;6.386;2023-04-03T10:36:36;3.47;;;0.60;;
51578;SDS011;47998;53.242;6.386;2023-04-03T10:39:12;3.25;;;0.60;;
51578;SDS011;47998;53.242;6.386;2023-04-03T10:46:59;1.02;;;0.43;;
51578;SDS011;47998;53.242;6.386;2023-04-03T10:57:39;1.65;;;0.45;;
51578;SDS011;47998;53.242;6.386;2023-04-03T11:00:06;2.45;;;0.38;;
51578;SDS011;47998;53.242;6.386;2023-04-03T11:02:49;1.73;;;0.52;;
51578;SDS011;47998;53.242;6.386;2023-04-03T11:08:21;2.05;;;0.50;;
51578;SDS011;47998;53.242;6.386;2023-04-03T11:10:51;1.30;;;0.47;;
51578;SDS011;47998;53.242;6.386;2023-04-03T11:13:32;2.17;;;0.68;;
51578;SDS011;47998;53.242;6.386;2023-04-03T11:16:00;2.25;;;0.35;;
51578;SDS011;47998;53.242;6.386;2023-04-03T11:18:32;2.60;;;0.60;;
51578;SDS011;47998;53.242;6.386;2023-04-03T11:21:12;2.88;;;0.85;;
51578;SDS011;47998;53.242;6.386;2023-04-03T11:23:47;3.42;;;0.82;;
51578;SDS011;47998;53.242;6.386;2023-04-03T11:26:13;1.77;;;0.80;;
51578;SDS011;47998;53.242;6.386;2023-04-03T11:28:45;2.60;;;0.68;;
51578;SDS011;47998;53.242;6.386;2023-04-03T11:31:33;1.23;;;0.60;;
51578;SDS011;47998;53.242;6.386;2023-04-03T11:34:41;2.45;;;0.65;;
51578;SDS011;47998;53.242;6.386;2023-04-03T11:39:47;1.73;;;0.65;;
51578;SDS011;47998;53.242;6.386;2023-04-03T11:47:48;1.98;;;0.75;;
51578;SDS011;47998;53.242;6.386;2023-04-03T11:53:03;2.17;;;0.60;;
51578;SDS011;47998;53.242;6.386;2023-04-03T11:55:53;2.28;;;0.60;;
51578;SDS011;47998;53.242;6.386;2023-04-03T11:58:24;2.17;;;0.60;;
51578;SDS011;47998;53.242;6.386;2023-04-03T12:00:59;2.70;;;0.60;;
51578;SDS011;47998;53.242;6.386;2023-04-03T12:13:37;3.38;;;0.75;;
51578;SDS011;47998;53.242;6.386;2023-04-03T12:16:08;1.38;;;0.40;;
51578;SDS011;47998;53.242;6.386;2023-04-03T12:24:03;2.20;;;0.57;;
51578;SDS011;47998;53.242;6.386;2023-04-03T12:26:34;3.88;;;0.60;;
51578;SDS011;47998;53.242;6.386;2023-04-03T12:29:23;2.58;;;0.82;;
51578;SDS011;47998;53.242;6.386;2023-04-03T12:35:05;2.47;;;0.57;;
51578;SDS011;47998;53.242;6.386;2023-04-03T12:40:37;1.95;;;0.80;;
51578;SDS011;47998;53.242;6.386;2023-04-03T12:48:28;2.38;;;0.63;;
51578;SDS011;47998;53.242;6.386;2023-04-03T12:50:56;1.85;;;0.40;;
51578;SDS011;47998;53.242;6.386;2023-04-03T12:53:28;2.38;;;0.52;;
51578;SDS011;47998;53.242;6.386;2023-04-03T12:58:52;3.60;;;0.85;;
51578;SDS011;47998;53.242;6.386;2023-04-03T13:01:23;1.90;;;0.45;;
51578;SDS011;47998;53.242;6.386;2023-04-03T13:03:54;2.00;;;0.43;;
51578;SDS011;47998;53.242;6.386;2023-04-03T13:06:26;2.35;;;0.70;;
51578;SDS011;47998;53.242;6.386;2023-04-03T13:08:59;2.63;;;0.38;;
51578;SDS011;47998;53.242;6.386;2023-04-03T13:11:27;4.00;;;0.70;;
51578;SDS011;47998;53.242;6.386;2023-04-03T13:13:59;1.70;;;0.55;;
51578;SDS011;47998;53.242;6.386;2023-04-03T13:16:28;2.45;;;0.77;;
51578;SDS011;47998;53.242;6.386;2023-04-03T13:18:55;3.67;;;0.95;;
51578;SDS011;47998;53.242;6.386;2023-04-03T13:21:27;3.53;;;0.52;;
51578;SDS011;47998;53.242;6.386;2023-04-03T13:23:56;2.05;;;0.50;;
51578;SDS011;47998;53.242;6.386;2023-04-03T13:26:26;3.78;;;0.77;;
51578;SDS011;47998;53.242;6.386;2023-04-03T13:28:59;4.05;;;0.93;;
51578;SDS011;47998;53.242;6.386;2023-04-03T13:31:30;1.52;;;0.50;;
51578;SDS011;47998;53.242;6.386;2023-04-03T13:36:36;1.85;;;0.65;;
51578;SDS011;47998;53.242;6.386;2023-04-03T13:41:41;1.65;;;0.57;;
51578;SDS011;47998;53.242;6.386;2023-04-03T13:46:54;8.85;;;2.75;;
51578;SDS011;47998;53.242;6.386;2023-04-03T13:51:59;2.17;;;0.90;;
51578;SDS011;47998;53.242;6.386;2023-04-03T13:54:36;2.60;;;0.50;;
51578;SDS011;47998;53.242;6.386;2023-04-03T13:57:10;4.18;;;1.00;;
51578;SDS011;47998;53.242;6.386;2023-04-03T13:59:39;2.90;;;0.90;;
51578;SDS011;47998;53.242;6.386;2023-04-03T14:07:02;2.55;;;0.70;;
51578;SDS011;47998;53.242;6.386;2023-04-03T14:09:29;4.80;;;1.27;;
51578;SDS011;47998;53.242;6.386;2023-04-03T14:11:56;4.18;;;0.90;;
51578;SDS011;47998;53.242;6.386;2023-04-03T14:14:29;2.55;;;0.80;;
51578;SDS011;47998;53.242;6.386;2023-04-03T14:16:57;1.77;;;0.63;;
51578;SDS011;47998;53.242;6.386;2023-04-03T14:19:34;3.72;;;1.05;;
51578;SDS011;47998;53.242;6.386;2023-04-03T14:22:05;4.70;;;1.20;;
51578;SDS011;47998;53.242;6.386;2023-04-03T14:24:41;4.38;;;1.67;;
51578;SDS011;47998;53.242;6.386;2023-04-03T14:29:46;2.63;;;0.70;;
51578;SDS011;47998;53.242;6.386;2023-04-03T14:32:13;2.10;;;0.75;;
51578;SDS011;47998;53.242;6.386;2023-04-03T14:34:39;3.70;;;0.90;;
51578;SDS011;47998;53.242;6.386;2023-04-03T14:37:09;2.75;;;0.90;;
51578;SDS011;47998;53.242;6.386;2023-04-03T14:39:37;4.18;;;1.42;;
51578;SDS011;47998;53.242;6.386;2023-04-03T14:42:02;2.22;;;0.60;;
51578;SDS011;47998;53.242;6.386;2023-04-03T14:44:28;2.90;;;0.80;;
51578;SDS011;47998;53.242;6.386;2023-04-03T14:46:54;1.40;;;0.50;;
51578;SDS011;47998;53.242;6.386;2023-04-03T14:49:22;3.72;;;0.60;;
51578;SDS011;47998;53.242;6.386;2023-04-03T14:51:55;1.00;;;0.45;;
51578;SDS011;47998;53.242;6.386;2023-04-03T14:54:23;5.45;;;0.80;;
51578;SDS011;47998;53.242;6.386;2023-04-03T14:56:52;4.90;;;0.95;;
51578;SDS011;47998;53.242;6.386;2023-04-03T14:59:20;2.20;;;0.50;;
51578;SDS011;47998;53.242;6.386;2023-04-03T15:01:46;3.40;;;1.75;;
51578;SDS011;47998;53.242;6.386;2023-04-03T15:04:13;10.32;;;6.88;;
51578;SDS011;47998;53.242;6.386;2023-04-03T15:06:44;2.40;;;0.52;;
51578;SDS011;47998;53.242;6.386;2023-04-03T15:11:48;1.45;;;0.43;;
51578;SDS011;47998;53.242;6.386;2023-04-03T15:14:15;3.65;;;0.80;;
51578;SDS011;47998;53.242;6.386;2023-04-03T15:16:41;1.77;;;0.50;;
51578;SDS011;47998;53.242;6.386;2023-04-03T15:19:08;1.17;;;0.50;;
51578;SDS011;47998;53.242;6.386;2023-04-03T15:21:33;1.35;;;0.52;;
51578;SDS011;47998;53.242;6.386;2023-04-03T15:23:59;2.70;;;0.40;;
51578;SDS011;47998;53.242;6.386;2023-04-03T15:26:25;2.58;;;0.40;;
51578;SDS011;47998;53.242;6.386;2023-04-03T15:28:51;1.15;;;0.30;;
51578;SDS011;47998;53.242;6.386;2023-04-03T15:31:17;2.85;;;0.52;;
51578;SDS011;47998;53.242;6.386;2023-04-03T15:33:42;3.17;;;0.50;;
51578;SDS011;47998;53.242;6.386;2023-04-03T15:36:08;15.27;;;9.90;;
51578;SDS011;47998;53.242;6.386;2023-04-03T15:38:34;2.00;;;1.00;;
51578;SDS011;47998;53.242;6.386;2023-04-03T15:41:02;1.17;;;0.45;;
51578;SDS011;47998;53.242;6.386;2023-04-03T15:43:28;1.77;;;0.40;;
51578;SDS011;47998;53.242;6.386;2023-04-03T15:45:56;1.75;;;0.40;;
51578;SDS011;47998;53.242;6.386;2023-04-03T15:48:23;2.55;;;0.50;;
51578;SDS011;47998;53.242;6.386;2023-04-03T15:50:50;2.53;;;0.57;;
51578;SDS011;47998;53.242;6.386;2023-04-03T15:53:15;2.38;;;0.40;;
51578;SDS011;47998;53.242;6.386;2023-04-03T15:55:41;1.55;;;0.73;;
51578;SDS011;47998;53.242;6.386;2023-04-03T15:58:07;2.97;;;0.40;;
51578;SDS011;47998;53.242;6.386;2023-04-03T16:00:33;0.75;;;0.30;;
51578;SDS011;47998;53.242;6.386;2023-04-03T16:03:02;2.33;;;0.85;;
51578;SDS011;47998;53.242;6.386;2023-04-03T16:05:32;2.03;;;0.52;;
51578;SDS011;47998;53.242;6.386;2023-04-03T16:08:00;2.72;;;0.80;;
51578;SDS011;47998;53.242;6.386;2023-04-03T16:10:26;2.25;;;0.55;;
51578;SDS011;47998;53.242;6.386;2023-04-03T16:12:53;2.75;;;0.63;;
51578;SDS011;47998;53.242;6.386;2023-04-03T16:15:19;2.28;;;0.70;;
51578;SDS011;47998;53.242;6.386;2023-04-03T16:17:47;3.40;;;0.50;;
51578;SDS011;47998;53.242;6.386;2023-04-03T16:20:13;2.88;;;0.82;;
51578;SDS011;47998;53.242;6.386;2023-04-03T16:22:39;2.40;;;0.60;;
51578;SDS011;47998;53.242;6.386;2023-04-03T16:25:06;4.20;;;0.73;;
51578;SDS011;47998;53.242;6.386;2023-04-03T16:27:33;3.30;;;0.70;;
51578;SDS011;47998;53.242;6.386;2023-04-03T16:29:59;2.85;;;1.17;;
51578;SDS011;47998;53.242;6.386;2023-04-03T16:32:26;3.70;;;0.68;;
51578;SDS011;47998;53.242;6.386;2023-04-03T16:34:54;3.13;;;0.57;;
51578;SDS011;47998;53.242;6.386;2023-04-03T16:37:20;2.33;;;0.60;;
51578;SDS011;47998;53.242;6.386;2023-04-03T16:39:46;2.50;;;0.57;;
51578;SDS011;47998;53.242;6.386;2023-04-03T16:42:12;2.83;;;0.90;;
51578;SDS011;47998;53.242;6.386;2023-04-03T16:44:38;1.70;;;0.70;;
51578;SDS011;47998;53.242;6.386;2023-04-03T16:47:04;3.15;;;0.77;;
51578;SDS011;47998;53.242;6.386;2023-04-03T16:49:30;4.50;;;0.80;;
51578;SDS011;47998;53.242;6.386;2023-04-03T16:52:03;1.25;;;0.45;;
51578;SDS011;47998;53.242;6.386;2023-04-03T16:54:30;3.05;;;0.95;;
51578;SDS011;47998;53.242;6.386;2023-04-03T16:56:56;4.15;;;1.02;;
51578;SDS011;47998;53.242;6.386;2023-04-03T16:59:22;1.25;;;0.50;;
51578;SDS011;47998;53.242;6.386;2023-04-03T17:01:48;1.85;;;0.60;;